sensor_id;sensor_type;location;lat;lon;timestamp;temperature;humidity
27306;DHT22;14792;50.886;6.468;2022-12-31T00:00:22;14.30;99.90
27306;DHT22;14792;50.886;6.468;2022-12-31T00:03:24;14.40;99.90
27306;DHT22;14792;50.886;6.468;2022-12-31T00:06:29;14.40;99.90
27306;DHT22;14792;50.886;6.468;2022-12-31T00:09:30;14.50;99.90
27306;DHT22;14792;50.886;6.468;2022-12-31T00:12:31;14.30;99.90
27306;DHT22;14792;50.886;6.468;2022-12-31T00:15:33;14.40;99.90
27306;DHT22;14792;50.886;6.468;2022-12-31T00:18:34;14.50;99.90
27306;DHT22;14792;50.886;6.468;2022-12-31T00:21:36;14.60;99.90
27306;DHT22;14792;50.886;6.468;2022-12-31T00:24:37;14.60;99.90
27306;DHT22;14792;50.886;6.468;2022-12-31T00:27:39;14.60;99.90
27306;DHT22;14792;50.886;6.468;2022-12-31T00:30:41;14.70;99.90
27306;DHT22;14792;50.886;6.468;2022-12-31T00:33:42;14.90;99.90
27306;DHT22;14792;50.886;6.468;2022-12-31T00:36:44;14.90;99.90
27306;DHT22;14792;50.886;6.468;2022-12-31T00:39:45;14.90;99.90
27306;DHT22;14792;50.886;6.468;2022-12-31T00:42:47;14.90;99.90
27306;DHT22;14792;50.886;6.468;2022-12-31T00:45:49;15.10;99.90
27306;DHT22;14792;50.886;6.468;2022-12-31T00:48:50;15.10;99.90
27306;DHT22;14792;50.886;6.468;2022-12-31T00:51:52;15.00;99.90
27306;DHT22;14792;50.886;6.468;2022-12-31T00:54:53;15.20;99.90
27306;DHT22;14792;50.886;6.468;2022-12-31T00:57:55;15.30;99.90
27306;DHT22;14792;50.886;6.468;2022-12-31T01:00:57;15.40;99.90
27306;DHT22;14792;50.886;6.468;2022-12-31T01:04:03;15.40;99.90
27306;DHT22;14792;50.886;6.468;2022-12-31T01:07:03;15.50;99.90
27306;DHT22;14792;50.886;6.468;2022-12-31T01:10:04;15.50;99.90
27306;DHT22;14792;50.886;6.468;2022-12-31T01:13:07;15.70;99.90
27306;DHT22;14792;50.886;6.468;2022-12-31T01:16:08;15.70;99.90
27306;DHT22;14792;50.886;6.468;2022-12-31T01:19:11;15.70;99.90
27306;DHT22;14792;50.886;6.468;2022-12-31T01:22:11;15.70;99.90
27306;DHT22;14792;50.886;6.468;2022-12-31T01:25:12;15.70;99.90
27306;DHT22;14792;50.886;6.468;2022-12-31T01:28:14;15.70;99.90
27306;DHT22;14792;50.886;6.468;2022-12-31T01:31:16;15.70;99.90
27306;DHT22;14792;50.886;6.468;2022-12-31T01:34:17;15.70;99.90
27306;DHT22;14792;50.886;6.468;2022-12-31T01:37:19;15.80;99.90
27306;DHT22;14792;50.886;6.468;2022-12-31T01:40:20;15.70;99.90
27306;DHT22;14792;50.886;6.468;2022-12-31T01:43:22;15.80;99.90
27306;DHT22;14792;50.886;6.468;2022-12-31T01:46:34;15.90;99.90
27306;DHT22;14792;50.886;6.468;2022-12-31T01:49:50;15.80;99.90
27306;DHT22;14792;50.886;6.468;2022-12-31T01:52:51;15.80;99.90
27306;DHT22;14792;50.886;6.468;2022-12-31T01:55:53;15.80;99.90
27306;DHT22;14792;50.886;6.468;2022-12-31T01:58:53;15.80;99.90
27306;DHT22;14792;50.886;6.468;2022-12-31T02:01:55;15.90;99.90
27306;DHT22;14792;50.886;6.468;2022-12-31T02:04:56;15.90;99.90
27306;DHT22;14792;50.886;6.468;2022-12-31T02:07:58;15.90;99.90
27306;DHT22;14792;50.886;6.468;2022-12-31T02:10:59;16.00;99.90
27306;DHT22;14792;50.886;6.468;2022-12-31T02:14:03;16.00;99.90
27306;DHT22;14792;50.886;6.468;2022-12-31T02:17:08;16.10;99.90
27306;DHT22;14792;50.886;6.468;2022-12-31T02:26:58;16.00;99.90
27306;DHT22;14792;50.886;6.468;2022-12-31T02:30:14;15.90;99.90
27306;DHT22;14792;50.886;6.468;2022-12-31T02:36:32;16.00;99.90
27306;DHT22;14792;50.886;6.468;2022-12-31T02:39:33;16.00;99.90
27306;DHT22;14792;50.886;6.468;2022-12-31T02:42:34;15.90;99.90
27306;DHT22;14792;50.886;6.468;2022-12-31T02:45:43;16.00;99.90
27306;DHT22;14792;50.886;6.468;2022-12-31T02:52:35;16.00;99.90
27306;DHT22;14792;50.886;6.468;2022-12-31T02:55:39;16.00;99.90
27306;DHT22;14792;50.886;6.468;2022-12-31T03:02:05;16.00;99.90
27306;DHT22;14792;50.886;6.468;2022-12-31T03:05:15;15.90;99.90
27306;DHT22;14792;50.886;6.468;2022-12-31T03:08:22;15.90;99.90
27306;DHT22;14792;50.886;6.468;2022-12-31T03:11:21;15.80;99.90
27306;DHT22;14792;50.886;6.468;2022-12-31T03:14:22;15.90;99.90
27306;DHT22;14792;50.886;6.468;2022-12-31T03:17:24;15.80;99.90
27306;DHT22;14792;50.886;6.468;2022-12-31T03:20:27;15.60;99.90
27306;DHT22;14792;50.886;6.468;2022-12-31T03:23:45;15.70;99.90
27306;DHT22;14792;50.886;6.468;2022-12-31T03:26:46;15.70;99.90
27306;DHT22;14792;50.886;6.468;2022-12-31T03:29:48;15.60;99.90
27306;DHT22;14792;50.886;6.468;2022-12-31T03:32:50;15.60;99.90
27306;DHT22;14792;50.886;6.468;2022-12-31T03:35:51;15.60;99.90
27306;DHT22;14792;50.886;6.468;2022-12-31T03:38:53;15.70;99.90
27306;DHT22;14792;50.886;6.468;2022-12-31T03:41:54;15.70;99.90
27306;DHT22;14792;50.886;6.468;2022-12-31T03:44:56;15.70;99.90
27306;DHT22;14792;50.886;6.468;2022-12-31T03:48:00;15.70;99.90
27306;DHT22;14792;50.886;6.468;2022-12-31T03:51:02;15.80;99.90
27306;DHT22;14792;50.886;6.468;2022-12-31T03:54:03;15.60;99.90
27306;DHT22;14792;50.886;6.468;2022-12-31T03:57:05;15.70;99.90
27306;DHT22;14792;50.886;6.468;2022-12-31T04:00:07;15.70;99.90
27306;DHT22;14792;50.886;6.468;2022-12-31T04:03:08;15.70;99.90
27306;DHT22;14792;50.886;6.468;2022-12-31T04:06:10;15.70;99.90
27306;DHT22;14792;50.886;6.468;2022-12-31T04:09:11;15.80;99.90
27306;DHT22;14792;50.886;6.468;2022-12-31T04:12:13;15.80;99.90
27306;DHT22;14792;50.886;6.468;2022-12-31T04:15:18;15.80;99.90
27306;DHT22;14792;50.886;6.468;2022-12-31T04:18:19;15.80;99.90
27306;DHT22;14792;50.886;6.468;2022-12-31T04:21:20;15.80;99.90
27306;DHT22;14792;50.886;6.468;2022-12-31T04:24:22;15.80;99.90
27306;DHT22;14792;50.886;6.468;2022-12-31T04:27:23;16.00;99.90
27306;DHT22;14792;50.886;6.468;2022-12-31T04:30:25;16.00;99.90
27306;DHT22;14792;50.886;6.468;2022-12-31T04:33:27;16.00;99.90
27306;DHT22;14792;50.886;6.468;2022-12-31T04:36:29;16.00;99.90
27306;DHT22;14792;50.886;6.468;2022-12-31T04:39:30;16.10;99.90
27306;DHT22;14792;50.886;6.468;2022-12-31T04:42:32;16.10;99.90
27306;DHT22;14792;50.886;6.468;2022-12-31T04:45:33;16.20;99.90
27306;DHT22;14792;50.886;6.468;2022-12-31T04:48:35;16.20;99.90
27306;DHT22;14792;50.886;6.468;2022-12-31T04:51:37;16.20;99.90
27306;DHT22;14792;50.886;6.468;2022-12-31T04:54:39;16.10;99.90
27306;DHT22;14792;50.886;6.468;2022-12-31T04:57:40;16.20;99.90
27306;DHT22;14792;50.886;6.468;2022-12-31T05:00:42;16.20;99.90
27306;DHT22;14792;50.886;6.468;2022-12-31T05:03:43;16.20;99.90
27306;DHT22;14792;50.886;6.468;2022-12-31T05:06:45;16.20;99.90
27306;DHT22;14792;50.886;6.468;2022-12-31T05:09:46;16.20;99.90
27306;DHT22;14792;50.886;6.468;2022-12-31T05:12:48;16.20;99.90
27306;DHT22;14792;50.886;6.468;2022-12-31T05:15:50;16.20;99.90
27306;DHT22;14792;50.886;6.468;2022-12-31T05:18:51;16.20;99.90
27306;DHT22;14792;50.886;6.468;2022-12-31T05:21:53;16.20;99.90
27306;DHT22;14792;50.886;6.468;2022-12-31T05:25:12;16.10;99.90
27306;DHT22;14792;50.886;6.468;2022-12-31T05:28:14;16.00;99.90
27306;DHT22;14792;50.886;6.468;2022-12-31T05:31:15;16.10;99.90
27306;DHT22;14792;50.886;6.468;2022-12-31T05:34:17;16.10;99.90
27306;DHT22;14792;50.886;6.468;2022-12-31T05:37:19;16.00;99.90
27306;DHT22;14792;50.886;6.468;2022-12-31T05:40:20;15.90;99.90
27306;DHT22;14792;50.886;6.468;2022-12-31T05:43:22;15.90;99.90
27306;DHT22;14792;50.886;6.468;2022-12-31T05:46:23;15.90;99.90
27306;DHT22;14792;50.886;6.468;2022-12-31T05:49:25;15.90;99.90
27306;DHT22;14792;50.886;6.468;2022-12-31T05:52:28;16.00;99.90
27306;DHT22;14792;50.886;6.468;2022-12-31T05:55:30;16.00;99.90
27306;DHT22;14792;50.886;6.468;2022-12-31T05:58:31;16.00;99.90
27306;DHT22;14792;50.886;6.468;2022-12-31T06:01:33;16.00;99.90
27306;DHT22;14792;50.886;6.468;2022-12-31T06:04:34;16.10;99.90
27306;DHT22;14792;50.886;6.468;2022-12-31T06:07:36;16.20;99.90
27306;DHT22;14792;50.886;6.468;2022-12-31T06:10:38;16.20;99.90
27306;DHT22;14792;50.886;6.468;2022-12-31T06:13:39;16.30;99.90
27306;DHT22;14792;50.886;6.468;2022-12-31T06:16:41;16.20;99.90
27306;DHT22;14792;50.886;6.468;2022-12-31T06:19:42;16.30;99.90
27306;DHT22;14792;50.886;6.468;2022-12-31T06:22:44;16.30;99.90
27306;DHT22;14792;50.886;6.468;2022-12-31T06:25:46;16.50;99.90
27306;DHT22;14792;50.886;6.468;2022-12-31T06:28:47;16.50;99.90
27306;DHT22;14792;50.886;6.468;2022-12-31T06:31:49;16.40;99.90
27306;DHT22;14792;50.886;6.468;2022-12-31T06:34:50;16.30;99.90
27306;DHT22;14792;50.886;6.468;2022-12-31T06:37:52;16.20;99.90
27306;DHT22;14792;50.886;6.468;2022-12-31T06:40:54;16.30;99.90
27306;DHT22;14792;50.886;6.468;2022-12-31T06:43:55;16.30;99.90
27306;DHT22;14792;50.886;6.468;2022-12-31T06:46:57;16.20;99.90
27306;DHT22;14792;50.886;6.468;2022-12-31T06:49:59;16.30;99.90
27306;DHT22;14792;50.886;6.468;2022-12-31T06:53:00;16.30;99.90
27306;DHT22;14792;50.886;6.468;2022-12-31T06:56:05;16.40;99.90
27306;DHT22;14792;50.886;6.468;2022-12-31T06:59:12;16.40;99.90
27306;DHT22;14792;50.886;6.468;2022-12-31T07:02:31;16.40;99.90
27306;DHT22;14792;50.886;6.468;2022-12-31T07:05:30;16.40;99.90
27306;DHT22;14792;50.886;6.468;2022-12-31T07:08:51;16.50;99.90
27306;DHT22;14792;50.886;6.468;2022-12-31T07:12:11;16.60;99.90
27306;DHT22;14792;50.886;6.468;2022-12-31T07:15:24;16.50;99.90
27306;DHT22;14792;50.886;6.468;2022-12-31T07:18:35;16.50;99.90
27306;DHT22;14792;50.886;6.468;2022-12-31T07:21:35;16.50;99.90
27306;DHT22;14792;50.886;6.468;2022-12-31T07:24:36;16.60;99.90
27306;DHT22;14792;50.886;6.468;2022-12-31T07:28:02;16.60;99.90
27306;DHT22;14792;50.886;6.468;2022-12-31T07:31:10;16.70;99.90
27306;DHT22;14792;50.886;6.468;2022-12-31T07:37:15;16.80;99.90
27306;DHT22;14792;50.886;6.468;2022-12-31T07:40:24;16.70;99.90
27306;DHT22;14792;50.886;6.468;2022-12-31T07:43:44;16.60;99.90
27306;DHT22;14792;50.886;6.468;2022-12-31T07:46:57;16.60;99.90
27306;DHT22;14792;50.886;6.468;2022-12-31T07:49:48;16.70;99.90
27306;DHT22;14792;50.886;6.468;2022-12-31T07:52:50;16.70;99.90
27306;DHT22;14792;50.886;6.468;2022-12-31T07:55:55;16.60;99.90
27306;DHT22;14792;50.886;6.468;2022-12-31T08:12:30;16.50;99.90
27306;DHT22;14792;50.886;6.468;2022-12-31T08:15:31;16.60;99.90
27306;DHT22;14792;50.886;6.468;2022-12-31T08:18:32;16.60;99.90
27306;DHT22;14792;50.886;6.468;2022-12-31T08:28:31;16.60;99.90
27306;DHT22;14792;50.886;6.468;2022-12-31T08:31:46;16.70;99.90
27306;DHT22;14792;50.886;6.468;2022-12-31T08:41:47;16.70;99.90
27306;DHT22;14792;50.886;6.468;2022-12-31T08:44:51;16.80;99.90
27306;DHT22;14792;50.886;6.468;2022-12-31T08:48:24;16.90;99.90
27306;DHT22;14792;50.886;6.468;2022-12-31T08:50:56;16.90;99.90
27306;DHT22;14792;50.886;6.468;2022-12-31T08:53:57;17.00;99.90
27306;DHT22;14792;50.886;6.468;2022-12-31T09:00:13;17.10;99.90
27306;DHT22;14792;50.886;6.468;2022-12-31T09:03:32;17.10;99.90
27306;DHT22;14792;50.886;6.468;2022-12-31T09:06:32;17.20;99.90
27306;DHT22;14792;50.886;6.468;2022-12-31T09:09:38;17.20;99.90
27306;DHT22;14792;50.886;6.468;2022-12-31T09:12:39;17.30;99.90
27306;DHT22;14792;50.886;6.468;2022-12-31T09:15:43;17.20;99.90
27306;DHT22;14792;50.886;6.468;2022-12-31T09:18:43;17.20;99.90
27306;DHT22;14792;50.886;6.468;2022-12-31T09:21:44;17.30;99.90
27306;DHT22;14792;50.886;6.468;2022-12-31T09:24:46;17.20;99.90
27306;DHT22;14792;50.886;6.468;2022-12-31T09:34:40;17.50;99.90
27306;DHT22;14792;50.886;6.468;2022-12-31T09:37:50;17.40;99.90
27306;DHT22;14792;50.886;6.468;2022-12-31T09:41:13;17.40;99.90
27306;DHT22;14792;50.886;6.468;2022-12-31T09:50:56;17.30;99.90
27306;DHT22;14792;50.886;6.468;2022-12-31T09:54:22;17.30;99.90
27306;DHT22;14792;50.886;6.468;2022-12-31T10:07:42;17.40;99.90
27306;DHT22;14792;50.886;6.468;2022-12-31T10:10:51;17.30;99.90
27306;DHT22;14792;50.886;6.468;2022-12-31T10:14:05;17.30;99.90
27306;DHT22;14792;50.886;6.468;2022-12-31T10:17:14;17.30;99.90
27306;DHT22;14792;50.886;6.468;2022-12-31T10:23:47;17.40;99.90
27306;DHT22;14792;50.886;6.468;2022-12-31T10:26:57;17.40;99.90
27306;DHT22;14792;50.886;6.468;2022-12-31T10:33:16;17.40;99.90
27306;DHT22;14792;50.886;6.468;2022-12-31T10:36:29;17.40;99.90
27306;DHT22;14792;50.886;6.468;2022-12-31T10:53:06;17.40;99.90
27306;DHT22;14792;50.886;6.468;2022-12-31T11:22:35;17.60;99.90
27306;DHT22;14792;50.886;6.468;2022-12-31T11:29:01;17.70;99.90
27306;DHT22;14792;50.886;6.468;2022-12-31T11:32:09;17.70;99.90
27306;DHT22;14792;50.886;6.468;2022-12-31T11:35:36;17.60;99.90
27306;DHT22;14792;50.886;6.468;2022-12-31T11:38:34;17.60;99.90
27306;DHT22;14792;50.886;6.468;2022-12-31T11:41:51;17.60;99.90
27306;DHT22;14792;50.886;6.468;2022-12-31T11:45:01;17.70;99.90
27306;DHT22;14792;50.886;6.468;2022-12-31T11:48:06;17.70;99.90
27306;DHT22;14792;50.886;6.468;2022-12-31T11:55:18;17.70;99.90
27306;DHT22;14792;50.886;6.468;2022-12-31T11:58:18;17.70;99.90
27306;DHT22;14792;50.886;6.468;2022-12-31T12:01:26;17.80;99.90
27306;DHT22;14792;50.886;6.468;2022-12-31T12:04:27;17.90;99.90
27306;DHT22;14792;50.886;6.468;2022-12-31T12:07:29;17.90;99.90
27306;DHT22;14792;50.886;6.468;2022-12-31T12:10:47;18.10;99.90
27306;DHT22;14792;50.886;6.468;2022-12-31T12:13:47;18.20;99.90
27306;DHT22;14792;50.886;6.468;2022-12-31T12:16:55;18.10;99.90
27306;DHT22;14792;50.886;6.468;2022-12-31T12:19:59;18.20;99.90
27306;DHT22;14792;50.886;6.468;2022-12-31T12:22:59;18.20;99.90
27306;DHT22;14792;50.886;6.468;2022-12-31T12:26:00;18.10;99.90
27306;DHT22;14792;50.886;6.468;2022-12-31T12:29:08;18.10;99.90
27306;DHT22;14792;50.886;6.468;2022-12-31T12:32:16;18.00;99.90
27306;DHT22;14792;50.886;6.468;2022-12-31T12:35:18;17.90;99.90
27306;DHT22;14792;50.886;6.468;2022-12-31T12:38:19;17.90;99.90
27306;DHT22;14792;50.886;6.468;2022-12-31T12:41:21;17.90;99.90
27306;DHT22;14792;50.886;6.468;2022-12-31T12:44:21;17.80;99.90
27306;DHT22;14792;50.886;6.468;2022-12-31T12:47:23;17.80;99.90
27306;DHT22;14792;50.886;6.468;2022-12-31T12:50:25;17.70;99.90
27306;DHT22;14792;50.886;6.468;2022-12-31T13:13:14;16.60;99.90
27306;DHT22;14792;50.886;6.468;2022-12-31T13:22:50;16.20;99.90
27306;DHT22;14792;50.886;6.468;2022-12-31T13:26:04;16.10;99.90
27306;DHT22;14792;50.886;6.468;2022-12-31T13:29:02;16.10;99.90
27306;DHT22;14792;50.886;6.468;2022-12-31T13:32:04;16.00;99.90
27306;DHT22;14792;50.886;6.468;2022-12-31T13:35:28;15.90;99.90
27306;DHT22;14792;50.886;6.468;2022-12-31T13:38:50;15.80;99.90
27306;DHT22;14792;50.886;6.468;2022-12-31T13:42:08;15.70;99.90
27306;DHT22;14792;50.886;6.468;2022-12-31T13:45:12;15.40;99.90
27306;DHT22;14792;50.886;6.468;2022-12-31T13:48:17;15.40;99.90
27306;DHT22;14792;50.886;6.468;2022-12-31T13:58:08;15.20;99.90
27306;DHT22;14792;50.886;6.468;2022-12-31T14:01:19;15.20;99.90
27306;DHT22;14792;50.886;6.468;2022-12-31T14:08:16;15.30;99.90
27306;DHT22;14792;50.886;6.468;2022-12-31T14:14:30;15.50;99.90
27306;DHT22;14792;50.886;6.468;2022-12-31T14:17:41;15.50;99.90
27306;DHT22;14792;50.886;6.468;2022-12-31T14:20:47;15.60;99.90
27306;DHT22;14792;50.886;6.468;2022-12-31T14:26:56;15.70;99.90
27306;DHT22;14792;50.886;6.468;2022-12-31T14:29:58;15.70;99.90
27306;DHT22;14792;50.886;6.468;2022-12-31T14:36:39;15.80;99.90
27306;DHT22;14792;50.886;6.468;2022-12-31T14:44:23;15.90;99.90
27306;DHT22;14792;50.886;6.468;2022-12-31T14:49:58;16.00;99.90
27306;DHT22;14792;50.886;6.468;2022-12-31T14:56:03;16.20;99.90
27306;DHT22;14792;50.886;6.468;2022-12-31T14:59:27;16.10;99.90
27306;DHT22;14792;50.886;6.468;2022-12-31T15:02:22;16.10;99.90
27306;DHT22;14792;50.886;6.468;2022-12-31T15:08:16;16.20;99.90
27306;DHT22;14792;50.886;6.468;2022-12-31T15:11:41;16.10;99.90
27306;DHT22;14792;50.886;6.468;2022-12-31T15:21:19;16.30;99.90
27306;DHT22;14792;50.886;6.468;2022-12-31T15:24:22;16.30;99.90
27306;DHT22;14792;50.886;6.468;2022-12-31T15:34:03;16.20;99.90
27306;DHT22;14792;50.886;6.468;2022-12-31T15:36:49;16.10;99.90
27306;DHT22;14792;50.886;6.468;2022-12-31T15:39:44;16.00;99.90
27306;DHT22;14792;50.886;6.468;2022-12-31T15:43:08;15.90;99.90
27306;DHT22;14792;50.886;6.468;2022-12-31T15:45:47;15.90;99.90
27306;DHT22;14792;50.886;6.468;2022-12-31T15:48:49;16.00;99.90
27306;DHT22;14792;50.886;6.468;2022-12-31T15:51:53;16.10;99.90
27306;DHT22;14792;50.886;6.468;2022-12-31T15:54:55;16.00;99.90
27306;DHT22;14792;50.886;6.468;2022-12-31T15:57:57;16.10;99.90
27306;DHT22;14792;50.886;6.468;2022-12-31T16:01:14;15.90;99.90
27306;DHT22;14792;50.886;6.468;2022-12-31T16:04:19;16.10;99.90
27306;DHT22;14792;50.886;6.468;2022-12-31T16:07:19;16.00;99.90
27306;DHT22;14792;50.886;6.468;2022-12-31T16:10:30;15.90;99.90
27306;DHT22;14792;50.886;6.468;2022-12-31T16:13:31;15.80;99.90
27306;DHT22;14792;50.886;6.468;2022-12-31T16:16:33;15.80;99.90
27306;DHT22;14792;50.886;6.468;2022-12-31T16:19:44;15.80;99.90
27306;DHT22;14792;50.886;6.468;2022-12-31T16:22:48;15.90;99.90
27306;DHT22;14792;50.886;6.468;2022-12-31T16:25:46;15.90;99.90
27306;DHT22;14792;50.886;6.468;2022-12-31T16:28:48;15.80;99.90
27306;DHT22;14792;50.886;6.468;2022-12-31T16:31:50;15.90;99.90
27306;DHT22;14792;50.886;6.468;2022-12-31T16:34:51;15.80;99.90
27306;DHT22;14792;50.886;6.468;2022-12-31T16:38:02;15.80;99.90
27306;DHT22;14792;50.886;6.468;2022-12-31T16:44:02;15.80;99.90
27306;DHT22;14792;50.886;6.468;2022-12-31T16:47:04;15.90;99.90
27306;DHT22;14792;50.886;6.468;2022-12-31T16:50:14;15.80;99.90
27306;DHT22;14792;50.886;6.468;2022-12-31T16:53:17;15.90;99.90
27306;DHT22;14792;50.886;6.468;2022-12-31T16:56:25;15.70;99.90
27306;DHT22;14792;50.886;6.468;2022-12-31T16:59:29;15.50;99.90
27306;DHT22;14792;50.886;6.468;2022-12-31T17:02:39;15.40;99.90
27306;DHT22;14792;50.886;6.468;2022-12-31T17:05:31;15.30;99.90
27306;DHT22;14792;50.886;6.468;2022-12-31T17:08:40;15.50;99.90
27306;DHT22;14792;50.886;6.468;2022-12-31T17:11:51;15.70;99.90
27306;DHT22;14792;50.886;6.468;2022-12-31T17:14:51;15.70;99.90
27306;DHT22;14792;50.886;6.468;2022-12-31T17:17:55;15.60;99.90
27306;DHT22;14792;50.886;6.468;2022-12-31T17:20:54;15.70;99.90
27306;DHT22;14792;50.886;6.468;2022-12-31T17:23:59;15.70;99.90
27306;DHT22;14792;50.886;6.468;2022-12-31T17:27:04;15.80;99.90
27306;DHT22;14792;50.886;6.468;2022-12-31T17:30:21;15.70;99.90
27306;DHT22;14792;50.886;6.468;2022-12-31T17:36:23;15.80;99.90
27306;DHT22;14792;50.886;6.468;2022-12-31T17:39:25;15.70;99.90
27306;DHT22;14792;50.886;6.468;2022-12-31T17:42:32;15.70;99.90
27306;DHT22;14792;50.886;6.468;2022-12-31T17:45:36;15.80;99.90
27306;DHT22;14792;50.886;6.468;2022-12-31T17:48:38;15.80;99.90
27306;DHT22;14792;50.886;6.468;2022-12-31T17:51:39;15.80;99.90
27306;DHT22;14792;50.886;6.468;2022-12-31T17:54:41;15.90;99.90
27306;DHT22;14792;50.886;6.468;2022-12-31T17:57:51;15.90;99.90
27306;DHT22;14792;50.886;6.468;2022-12-31T18:00:50;15.80;99.90
27306;DHT22;14792;50.886;6.468;2022-12-31T18:03:51;15.80;99.90
27306;DHT22;14792;50.886;6.468;2022-12-31T18:06:53;15.80;99.90
27306;DHT22;14792;50.886;6.468;2022-12-31T18:09:54;15.90;99.90
27306;DHT22;14792;50.886;6.468;2022-12-31T18:12:56;15.90;99.90
27306;DHT22;14792;50.886;6.468;2022-12-31T18:15:58;15.80;99.90
27306;DHT22;14792;50.886;6.468;2022-12-31T18:19:00;15.80;99.90
27306;DHT22;14792;50.886;6.468;2022-12-31T18:22:02;15.90;99.90
27306;DHT22;14792;50.886;6.468;2022-12-31T18:25:03;16.00;99.90
27306;DHT22;14792;50.886;6.468;2022-12-31T18:28:07;16.10;99.90
27306;DHT22;14792;50.886;6.468;2022-12-31T18:31:10;16.10;99.90
27306;DHT22;14792;50.886;6.468;2022-12-31T18:34:08;16.20;99.90
27306;DHT22;14792;50.886;6.468;2022-12-31T18:37:10;16.30;99.90
27306;DHT22;14792;50.886;6.468;2022-12-31T18:40:11;16.30;99.90
27306;DHT22;14792;50.886;6.468;2022-12-31T18:43:16;16.20;99.90
27306;DHT22;14792;50.886;6.468;2022-12-31T18:46:18;16.10;99.90
27306;DHT22;14792;50.886;6.468;2022-12-31T18:49:19;16.20;99.90
27306;DHT22;14792;50.886;6.468;2022-12-31T18:52:21;16.20;99.90
27306;DHT22;14792;50.886;6.468;2022-12-31T18:55:26;16.20;99.90
27306;DHT22;14792;50.886;6.468;2022-12-31T18:58:27;16.20;99.90
27306;DHT22;14792;50.886;6.468;2022-12-31T19:01:32;16.10;99.90
27306;DHT22;14792;50.886;6.468;2022-12-31T19:04:33;16.20;99.90
27306;DHT22;14792;50.886;6.468;2022-12-31T19:07:35;16.10;99.90
27306;DHT22;14792;50.886;6.468;2022-12-31T19:10:36;16.10;99.90
27306;DHT22;14792;50.886;6.468;2022-12-31T19:13:38;16.10;99.90
27306;DHT22;14792;50.886;6.468;2022-12-31T19:16:39;16.10;99.90
27306;DHT22;14792;50.886;6.468;2022-12-31T19:19:41;16.20;99.90
27306;DHT22;14792;50.886;6.468;2022-12-31T19:22:42;16.20;99.90
27306;DHT22;14792;50.886;6.468;2022-12-31T19:25:45;16.30;99.90
27306;DHT22;14792;50.886;6.468;2022-12-31T19:28:46;16.20;99.90
27306;DHT22;14792;50.886;6.468;2022-12-31T19:31:47;16.40;99.90
27306;DHT22;14792;50.886;6.468;2022-12-31T19:34:49;16.30;99.90
27306;DHT22;14792;50.886;6.468;2022-12-31T19:37:51;16.20;99.90
27306;DHT22;14792;50.886;6.468;2022-12-31T19:40:52;16.30;99.90
27306;DHT22;14792;50.886;6.468;2022-12-31T19:43:54;16.20;99.90
27306;DHT22;14792;50.886;6.468;2022-12-31T19:46:55;16.30;99.90
27306;DHT22;14792;50.886;6.468;2022-12-31T19:49:57;16.30;99.90
27306;DHT22;14792;50.886;6.468;2022-12-31T19:52:59;16.30;99.90
27306;DHT22;14792;50.886;6.468;2022-12-31T19:56:00;16.40;99.90
27306;DHT22;14792;50.886;6.468;2022-12-31T19:59:03;16.30;99.90
27306;DHT22;14792;50.886;6.468;2022-12-31T20:02:03;16.20;99.90
27306;DHT22;14792;50.886;6.468;2022-12-31T20:05:05;16.00;99.90
27306;DHT22;14792;50.886;6.468;2022-12-31T20:08:07;16.10;99.90
27306;DHT22;14792;50.886;6.468;2022-12-31T20:11:12;16.10;99.90
27306;DHT22;14792;50.886;6.468;2022-12-31T20:14:12;16.10;99.90
27306;DHT22;14792;50.886;6.468;2022-12-31T20:17:14;16.20;99.90
27306;DHT22;14792;50.886;6.468;2022-12-31T20:20:15;16.30;99.90
27306;DHT22;14792;50.886;6.468;2022-12-31T20:23:17;16.20;99.90
27306;DHT22;14792;50.886;6.468;2022-12-31T20:26:19;16.20;99.90
27306;DHT22;14792;50.886;6.468;2022-12-31T20:29:20;16.10;99.90
27306;DHT22;14792;50.886;6.468;2022-12-31T20:32:22;16.30;99.90
27306;DHT22;14792;50.886;6.468;2022-12-31T20:35:23;16.20;99.90
27306;DHT22;14792;50.886;6.468;2022-12-31T20:38:26;16.30;99.90
27306;DHT22;14792;50.886;6.468;2022-12-31T20:41:27;16.20;99.90
27306;DHT22;14792;50.886;6.468;2022-12-31T20:44:28;16.10;99.90
27306;DHT22;14792;50.886;6.468;2022-12-31T20:47:30;16.20;99.90
27306;DHT22;14792;50.886;6.468;2022-12-31T20:50:31;16.20;99.90
27306;DHT22;14792;50.886;6.468;2022-12-31T20:53:33;16.00;99.90
27306;DHT22;14792;50.886;6.468;2022-12-31T20:56:35;16.20;99.90
27306;DHT22;14792;50.886;6.468;2022-12-31T20:59:36;16.20;99.90
27306;DHT22;14792;50.886;6.468;2022-12-31T21:02:38;16.10;99.90
27306;DHT22;14792;50.886;6.468;2022-12-31T21:05:45;16.10;99.90
27306;DHT22;14792;50.886;6.468;2022-12-31T21:08:41;16.00;99.90
27306;DHT22;14792;50.886;6.468;2022-12-31T21:11:42;16.00;99.90
27306;DHT22;14792;50.886;6.468;2022-12-31T21:15:02;16.00;99.90
27306;DHT22;14792;50.886;6.468;2022-12-31T21:18:03;15.90;99.90
27306;DHT22;14792;50.886;6.468;2022-12-31T21:21:05;15.90;99.90
27306;DHT22;14792;50.886;6.468;2022-12-31T21:24:07;15.90;99.90
27306;DHT22;14792;50.886;6.468;2022-12-31T21:27:08;15.90;99.90
27306;DHT22;14792;50.886;6.468;2022-12-31T21:30:10;15.90;99.90
27306;DHT22;14792;50.886;6.468;2022-12-31T21:33:11;15.80;99.90
27306;DHT22;14792;50.886;6.468;2022-12-31T21:36:14;15.90;99.90
27306;DHT22;14792;50.886;6.468;2022-12-31T21:39:15;15.80;99.90
27306;DHT22;14792;50.886;6.468;2022-12-31T21:42:16;15.80;99.90
27306;DHT22;14792;50.886;6.468;2022-12-31T21:45:18;15.90;99.90
27306;DHT22;14792;50.886;6.468;2022-12-31T21:48:19;16.00;99.90
27306;DHT22;14792;50.886;6.468;2022-12-31T21:51:21;16.20;99.90
27306;DHT22;14792;50.886;6.468;2022-12-31T21:54:22;16.00;99.90
27306;DHT22;14792;50.886;6.468;2022-12-31T21:57:43;16.20;99.90
27306;DHT22;14792;50.886;6.468;2022-12-31T22:00:44;16.20;99.90
27306;DHT22;14792;50.886;6.468;2022-12-31T22:04:04;16.20;99.90
27306;DHT22;14792;50.886;6.468;2022-12-31T22:07:06;16.40;99.90
27306;DHT22;14792;50.886;6.468;2022-12-31T22:10:07;16.40;99.90
27306;DHT22;14792;50.886;6.468;2022-12-31T22:13:09;16.50;99.90
27306;DHT22;14792;50.886;6.468;2022-12-31T22:16:10;16.40;99.90
27306;DHT22;14792;50.886;6.468;2022-12-31T22:19:12;16.50;99.90
27306;DHT22;14792;50.886;6.468;2022-12-31T22:22:13;16.80;99.90
27306;DHT22;14792;50.886;6.468;2022-12-31T22:25:15;16.60;99.90
27306;DHT22;14792;50.886;6.468;2022-12-31T22:28:17;16.60;99.90
27306;DHT22;14792;50.886;6.468;2022-12-31T22:31:20;16.50;99.90
27306;DHT22;14792;50.886;6.468;2022-12-31T22:34:20;16.40;99.90
27306;DHT22;14792;50.886;6.468;2022-12-31T22:37:21;16.50;99.90
27306;DHT22;14792;50.886;6.468;2022-12-31T22:40:23;16.40;99.90
27306;DHT22;14792;50.886;6.468;2022-12-31T22:43:25;16.40;99.90
27306;DHT22;14792;50.886;6.468;2022-12-31T22:46:26;16.50;99.90